createdAt,value
2023-05-19T00:00:00.216Z,62
2023-05-19T00:04:00.193Z,62
2023-05-19T00:08:00.222Z,63
2023-05-19T00:12:00.199Z,62
2023-05-19T00:16:00.305Z,64
2023-05-19T00:20:00.219Z,64
2023-05-19T00:24:00.252Z,64
2023-05-19T00:28:00.193Z,64
2023-05-19T00:32:00.307Z,65
2023-05-19T00:36:00.205Z,66
2023-05-19T00:40:00.214Z,66
2023-05-19T00:44:00.216Z,66
2023-05-19T00:48:00.258Z,66
2023-05-19T00:52:00.210Z,66
2023-05-19T00:56:00.195Z,66
2023-05-19T01:00:00.261Z,69
2023-05-19T01:04:00.463Z,68
2023-05-19T01:08:00.203Z,68
2023-05-19T01:12:00.196Z,68
2023-05-19T01:16:00.263Z,68
2023-05-19T01:20:00.240Z,68
2023-05-19T01:24:00.204Z,68
2023-05-19T01:28:00.216Z,69
2023-05-19T01:32:00.356Z,68
2023-05-19T01:36:00.205Z,68
2023-05-19T01:40:00.207Z,68
2023-05-19T01:44:00.202Z,68
2023-05-19T01:48:00.273Z,68
2023-05-19T01:52:00.185Z,68
2023-05-19T01:56:00.217Z,68
2023-05-19T02:00:00.226Z,68
2023-05-19T02:04:00.274Z,68
2023-05-19T02:08:00.223Z,69
2023-05-19T02:12:00.226Z,69
2023-05-19T02:16:00.238Z,69
2023-05-19T02:20:00.226Z,70
2023-05-19T02:24:00.186Z,70
2023-05-19T02:28:00.232Z,70
2023-05-19T02:32:00.331Z,70
2023-05-19T02:36:00.219Z,70
2023-05-19T02:40:00.197Z,70
2023-05-19T02:44:00.201Z,70
2023-05-19T02:48:00.227Z,70
2023-05-19T02:52:00.209Z,70
2023-05-19T02:56:00.192Z,70
2023-05-19T03:00:00.221Z,70
2023-05-19T03:04:00.356Z,70
2023-05-19T03:08:00.222Z,70
2023-05-19T03:12:00.209Z,70
2023-05-19T03:16:00.280Z,69
2023-05-19T03:20:00.244Z,70
2023-05-19T03:24:00.207Z,70
2023-05-19T03:28:00.199Z,70
2023-05-19T03:32:00.440Z,70
2023-05-19T03:36:00.201Z,70
2023-05-19T03:40:00.224Z,70
2023-05-19T03:44:00.191Z,70
2023-05-19T03:48:00.270Z,70
2023-05-19T03:52:00.199Z,70
2023-05-19T03:56:00.196Z,69
2023-05-19T04:00:00.299Z,69
2023-05-19T04:04:00.295Z,69
2023-05-19T04:08:00.187Z,69
2023-05-19T04:12:00.215Z,69
2023-05-19T04:16:00.281Z,69
2023-05-19T04:20:00.204Z,69
2023-05-19T04:24:00.231Z,69
2023-05-19T04:28:00.201Z,69
2023-05-19T04:32:00.207Z,68
2023-05-19T04:36:00.206Z,68
2023-05-19T04:40:00.222Z,68
2023-05-19T04:44:00.232Z,68
2023-05-19T04:48:00.278Z,68
2023-05-19T04:52:00.213Z,68
2023-05-19T04:56:00.205Z,67
2023-05-19T05:00:00.470Z,67
2023-05-19T05:04:00.284Z,66
2023-05-19T05:08:00.235Z,66
2023-05-19T05:12:00.212Z,66
2023-05-19T05:16:00.287Z,65
2023-05-19T05:20:00.243Z,65
2023-05-19T05:24:00.211Z,65
2023-05-19T05:28:00.181Z,64
2023-05-19T05:32:00.234Z,64
2023-05-19T05:36:00.202Z,62
2023-05-19T05:40:00.231Z,62
2023-05-19T05:44:00.186Z,62
2023-05-19T05:48:00.330Z,59
2023-05-19T05:52:05.686Z,58
2023-05-19T05:56:00.213Z,58
2023-05-19T06:00:00.198Z,58
2023-05-19T06:04:00.216Z,58
2023-05-19T06:08:00.226Z,57
2023-05-19T06:12:00.217Z,57
2023-05-19T06:16:01.991Z,56
2023-05-19T06:20:00.223Z,56
2023-05-19T06:24:00.245Z,56
2023-05-19T06:28:00.213Z,55
2023-05-19T06:32:00.203Z,55
2023-05-19T06:36:00.223Z,55
2023-05-19T06:40:00.198Z,55
2023-05-19T06:44:00.205Z,54
2023-05-19T06:48:00.270Z,54
2023-05-19T06:52:00.212Z,52
2023-05-19T06:56:00.576Z,50
2023-05-19T07:00:00.212Z,50
2023-05-19T07:04:00.320Z,49
2023-05-19T07:08:00.230Z,49
2023-05-19T07:12:00.206Z,49
2023-05-19T07:16:00.303Z,48
2023-05-19T07:20:00.249Z,47
2023-05-19T07:24:00.223Z,45
2023-05-19T07:28:00.264Z,46
2023-05-19T07:32:00.244Z,46
2023-05-19T07:36:00.223Z,45
2023-05-19T07:40:00.268Z,44
2023-05-19T07:44:00.192Z,43
2023-05-19T07:48:00.254Z,42
2023-05-19T07:52:00.182Z,42
2023-05-19T07:56:00.208Z,41
2023-05-19T08:00:00.208Z,42
2023-05-19T08:04:00.318Z,42
2023-05-19T08:08:00.200Z,43
2023-05-19T08:12:00.221Z,43
2023-05-19T08:16:00.324Z,43
2023-05-19T08:20:00.196Z,43
2023-05-19T08:24:00.225Z,43
2023-05-19T08:28:00.205Z,43
2023-05-19T08:32:00.222Z,43
2023-05-19T08:36:00.219Z,44
2023-05-19T08:40:00.196Z,45
2023-05-19T08:44:00.217Z,43
2023-05-19T08:48:00.335Z,44
2023-05-19T08:52:00.201Z,44
2023-05-19T08:56:00.204Z,43
2023-05-19T09:00:00.264Z,41
2023-05-19T09:04:00.258Z,42
2023-05-19T09:08:00.207Z,41
2023-05-19T09:12:00.190Z,39
2023-05-19T09:16:00.212Z,40
2023-05-19T09:20:00.221Z,40
2023-05-19T09:24:00.187Z,39
2023-05-19T09:28:00.200Z,38
2023-05-19T09:32:00.325Z,39
2023-05-19T09:36:00.192Z,37
2023-05-19T09:40:00.205Z,38
2023-05-19T09:44:00.219Z,39
2023-05-19T09:48:00.235Z,39
2023-05-19T09:52:00.257Z,39
2023-05-19T09:56:00.202Z,38
2023-05-19T10:00:00.293Z,39
2023-05-19T10:04:00.200Z,38
2023-05-19T10:08:00.197Z,38
2023-05-19T10:12:00.295Z,38
2023-05-19T10:16:00.776Z,39
2023-05-19T10:20:00.201Z,38
2023-05-19T10:24:00.197Z,38
2023-05-19T10:28:00.194Z,39
2023-05-19T10:32:00.276Z,39
2023-05-19T10:36:00.189Z,37
2023-05-19T10:40:00.206Z,37
2023-05-19T10:44:00.184Z,37
2023-05-19T10:48:00.360Z,38
2023-05-19T10:52:00.194Z,37
2023-05-19T10:56:00.220Z,37
2023-05-19T11:00:00.202Z,37
2023-05-19T11:04:00.355Z,36
2023-05-19T11:08:00.185Z,37
2023-05-19T11:12:00.204Z,36
2023-05-19T11:16:00.195Z,36
2023-05-19T11:20:00.231Z,37
2023-05-19T11:24:00.213Z,37
2023-05-19T11:28:00.211Z,38
2023-05-19T11:32:00.280Z,37
2023-05-19T11:36:00.286Z,36
2023-05-19T11:40:00.216Z,36
2023-05-19T11:44:00.193Z,36
2023-05-19T11:48:02.512Z,36
2023-05-19T11:52:00.204Z,35
2023-05-19T11:56:00.192Z,32
2023-05-19T12:00:00.200Z,33
2023-05-19T12:04:00.242Z,34
2023-05-19T12:08:00.220Z,34
2023-05-19T12:12:00.217Z,35
2023-05-19T12:16:00.230Z,36
2023-05-19T12:20:00.179Z,36
2023-05-19T12:24:00.219Z,37
2023-05-19T12:28:00.208Z,37
2023-05-19T12:32:00.367Z,38
2023-05-19T12:36:00.182Z,36
2023-05-19T12:40:00.188Z,36
2023-05-19T12:44:00.188Z,35
2023-05-19T12:48:00.387Z,34
2023-05-19T12:52:00.544Z,35
2023-05-19T12:56:00.195Z,36
2023-05-19T13:00:00.370Z,35
2023-05-19T13:04:00.394Z,35
2023-05-19T13:08:00.229Z,34
2023-05-19T13:12:00.209Z,31
2023-05-19T13:16:00.206Z,31
2023-05-19T13:20:00.315Z,32
2023-05-19T13:24:00.195Z,33
2023-05-19T13:28:00.214Z,34
2023-05-19T13:32:01.467Z,34
2023-05-19T13:36:00.183Z,35
2023-05-19T13:40:00.211Z,35
2023-05-19T13:44:00.203Z,35
2023-05-19T13:48:00.290Z,35
2023-05-19T13:52:00.229Z,35
2023-05-19T13:56:00.199Z,34
2023-05-19T14:00:03.885Z,34
2023-05-19T14:04:01.009Z,35
2023-05-19T14:08:00.225Z,36
2023-05-19T14:12:00.196Z,35
2023-05-19T14:16:00.283Z,35
2023-05-19T14:20:00.232Z,35
2023-05-19T14:24:00.205Z,35
2023-05-19T14:28:00.217Z,35
2023-05-19T14:32:00.246Z,35
2023-05-19T14:36:00.198Z,34
2023-05-19T14:40:00.214Z,35
2023-05-19T14:44:00.209Z,35
2023-05-19T14:48:00.296Z,35
2023-05-19T14:52:00.200Z,35
2023-05-19T14:56:01.258Z,36
2023-05-19T15:00:00.240Z,36
2023-05-19T15:04:00.304Z,36
2023-05-19T15:08:00.199Z,35
2023-05-19T15:12:00.211Z,35
2023-05-19T15:16:15.680Z,35
2023-05-19T15:20:00.265Z,35
2023-05-19T15:24:00.194Z,35
2023-05-19T15:28:00.227Z,36
2023-05-19T15:32:00.193Z,36
2023-05-19T15:36:00.210Z,37
2023-05-19T15:40:00.237Z,37
2023-05-19T15:44:00.400Z,37
2023-05-19T15:48:00.258Z,37
2023-05-19T15:52:00.186Z,37
2023-05-19T15:56:00.928Z,37
2023-05-19T16:00:00.201Z,37
2023-05-19T16:04:00.289Z,36
2023-05-19T16:08:00.216Z,37
2023-05-19T16:12:00.199Z,37
2023-05-19T16:16:00.247Z,37
2023-05-19T16:20:00.218Z,38
2023-05-19T16:24:00.258Z,38
2023-05-19T16:28:00.192Z,38
2023-05-19T16:32:00.243Z,38
2023-05-19T16:36:00.192Z,38
2023-05-19T16:40:00.198Z,38
2023-05-19T16:44:00.216Z,39
2023-05-19T16:48:00.279Z,39
2023-05-19T16:52:00.278Z,39
2023-05-19T16:56:00.192Z,39
2023-05-19T17:00:00.219Z,40
2023-05-19T17:04:00.200Z,40
2023-05-19T17:08:00.496Z,41
2023-05-19T17:12:00.207Z,41
2023-05-19T17:16:00.207Z,42
2023-05-19T17:20:00.199Z,42
2023-05-19T17:24:00.208Z,42
2023-05-19T17:28:00.206Z,42
2023-05-19T17:32:00.272Z,43
2023-05-19T17:36:00.198Z,43
2023-05-19T17:40:00.194Z,43
2023-05-19T17:44:00.207Z,44
2023-05-19T17:48:00.363Z,44
2023-05-19T17:52:00.201Z,44
2023-05-19T17:56:00.199Z,44
2023-05-19T18:00:00.241Z,45
2023-05-19T18:04:00.306Z,44
2023-05-19T18:08:00.217Z,46
2023-05-19T18:12:00.197Z,46
2023-05-19T18:16:00.308Z,46
2023-05-19T18:20:00.241Z,47
2023-05-19T18:24:00.203Z,47
2023-05-19T18:28:00.223Z,47
2023-05-19T18:32:00.290Z,48
2023-05-19T18:36:00.186Z,48
2023-05-19T18:40:00.215Z,49
2023-05-19T18:44:00.202Z,49
2023-05-19T18:48:00.259Z,49
2023-05-19T18:52:00.215Z,49
2023-05-19T18:56:00.200Z,50
2023-05-19T19:00:00.202Z,50
2023-05-19T19:04:00.278Z,51
2023-05-19T19:08:00.213Z,52
2023-05-19T19:12:00.199Z,52
2023-05-19T19:16:00.213Z,52
2023-05-19T19:20:00.306Z,52
2023-05-19T19:24:00.206Z,53
2023-05-19T19:28:00.192Z,53
2023-05-19T19:32:00.278Z,53
2023-05-19T19:36:00.196Z,53
2023-05-19T19:40:00.218Z,54
2023-05-19T19:44:00.179Z,54
2023-05-19T19:48:00.228Z,54
2023-05-19T19:52:00.222Z,54
2023-05-19T19:56:00.191Z,55
2023-05-19T20:00:00.204Z,55
2023-05-19T20:04:00.306Z,55
2023-05-19T20:08:00.234Z,55
2023-05-19T20:12:00.202Z,56
2023-05-19T20:16:00.278Z,56
2023-05-19T20:20:00.262Z,56
2023-05-19T20:24:00.213Z,56
2023-05-19T20:28:00.198Z,56
2023-05-19T20:32:00.195Z,56
2023-05-19T20:36:00.246Z,56
2023-05-19T20:40:00.212Z,56
2023-05-19T20:44:00.197Z,56
2023-05-19T20:48:00.362Z,57
2023-05-19T20:52:00.204Z,57
2023-05-19T20:56:00.198Z,57
2023-05-19T21:00:00.221Z,57
2023-05-19T21:04:00.224Z,57
2023-05-19T21:08:00.211Z,58
2023-05-19T21:12:00.203Z,58
2023-05-19T21:16:00.209Z,58
2023-05-19T21:20:00.255Z,59
2023-05-19T21:24:00.189Z,59
2023-05-19T21:28:00.219Z,59
2023-05-19T21:32:00.215Z,59
2023-05-19T21:36:00.218Z,59
2023-05-19T21:40:00.188Z,59
2023-05-19T21:44:00.204Z,59
2023-05-19T21:48:00.243Z,60
2023-05-19T21:52:00.203Z,61
2023-05-19T21:56:00.186Z,61
2023-05-19T22:00:00.265Z,61
2023-05-19T22:04:00.350Z,62
2023-05-19T22:08:00.207Z,62
2023-05-19T22:12:00.193Z,63
2023-05-19T22:16:00.264Z,63
2023-05-19T22:20:00.185Z,63
2023-05-19T22:24:00.213Z,63
2023-05-19T22:28:00.441Z,63
2023-05-19T22:32:00.198Z,64
2023-05-19T22:36:00.182Z,64
2023-05-19T22:40:00.253Z,64
2023-05-19T22:44:00.181Z,65
2023-05-19T22:48:00.205Z,65
2023-05-19T22:52:00.193Z,67
2023-05-19T22:56:00.210Z,66
2023-05-19T23:00:00.225Z,66
2023-05-19T23:04:00.298Z,67
2023-05-19T23:08:00.188Z,67
2023-05-19T23:12:00.185Z,67
2023-05-19T23:16:00.200Z,67
2023-05-19T23:20:00.191Z,67
2023-05-19T23:24:00.217Z,67
2023-05-19T23:28:00.200Z,67
2023-05-19T23:32:00.205Z,68
2023-05-19T23:36:00.225Z,68
2023-05-19T23:40:00.199Z,68
2023-05-19T23:44:00.222Z,68
2023-05-19T23:48:00.308Z,68
2023-05-19T23:52:00.221Z,68
2023-05-19T23:56:00.214Z,68
